createdAt,value
2024-01-05T00:00:34.711Z,433.00
2024-01-05T00:01:34.689Z,435.00
2024-01-05T00:02:34.564Z,435.00
2024-01-05T00:03:34.688Z,433.00
2024-01-05T00:04:34.673Z,435.00
2024-01-05T00:05:34.687Z,431.00
2024-01-05T00:06:34.760Z,432.00
2024-01-05T00:07:34.700Z,433.00
2024-01-05T00:08:34.705Z,433.00
2024-01-05T00:09:34.819Z,433.00
2024-01-05T00:10:34.777Z,431.00
2024-01-05T00:11:34.786Z,430.00
2024-01-05T00:12:34.880Z,431.00
2024-01-05T00:13:34.756Z,431.00
2024-01-05T00:14:34.809Z,428.00
2024-01-05T00:15:34.925Z,426.00
2024-01-05T00:16:34.850Z,426.00
2024-01-05T00:17:34.921Z,426.00
2024-01-05T00:18:34.974Z,426.00
2024-01-05T00:19:35.159Z,426.00
2024-01-05T00:20:34.981Z,425.00
2024-01-05T00:21:35.012Z,425.00
2024-01-05T00:22:34.924Z,424.00
2024-01-05T00:23:35.019Z,425.00
2024-01-05T00:24:35.103Z,424.00
2024-01-05T00:25:35.021Z,425.00
2024-01-05T00:26:35.001Z,427.00
2024-01-05T00:27:35.154Z,426.00
2024-01-05T00:28:35.004Z,425.00
2024-01-05T00:29:35.009Z,427.00
2024-01-05T00:30:35.102Z,427.00
2024-01-05T00:31:35.202Z,429.00
2024-01-05T00:32:35.123Z,431.00
2024-01-05T00:33:35.364Z,433.00
2024-01-05T00:34:35.327Z,435.00
2024-01-05T00:35:35.103Z,436.00
2024-01-05T00:36:35.211Z,438.00
2024-01-05T00:37:35.169Z,438.00
2024-01-05T00:38:35.198Z,435.00
2024-01-05T00:39:35.207Z,435.00
2024-01-05T00:40:35.180Z,435.00
2024-01-05T00:41:35.200Z,434.00
2024-01-05T00:42:35.311Z,434.00
2024-01-05T00:43:35.251Z,436.00
2024-01-05T00:44:35.275Z,434.00
2024-01-05T00:45:35.346Z,434.00
2024-01-05T00:46:35.337Z,433.00
2024-01-05T00:47:35.421Z,433.00
2024-01-05T00:48:35.520Z,432.00
2024-01-05T00:49:35.578Z,432.00
2024-01-05T00:50:35.420Z,432.00
2024-01-05T00:51:35.588Z,431.00
2024-01-05T00:52:35.488Z,431.00
2024-01-05T00:53:35.509Z,431.00
2024-01-05T00:54:35.576Z,431.00
2024-01-05T00:55:35.532Z,430.00
2024-01-05T00:56:35.619Z,430.00
2024-01-05T00:57:35.773Z,429.00
2024-01-05T00:58:35.644Z,426.00
2024-01-05T00:59:35.651Z,426.00
2024-01-05T01:00:35.722Z,426.00
2024-01-05T01:01:35.714Z,429.00
2024-01-05T01:02:35.675Z,424.00
2024-01-05T01:03:35.842Z,424.00
2024-01-05T01:04:35.787Z,423.00
2024-01-05T01:05:35.738Z,422.00
2024-01-05T01:06:35.784Z,423.00
2024-01-05T01:07:35.789Z,425.00
2024-01-05T01:08:35.818Z,425.00
2024-01-05T01:09:35.784Z,427.00
2024-01-05T01:10:35.800Z,428.00
2024-01-05T01:11:35.867Z,426.00
2024-01-05T01:12:36.020Z,425.00
2024-01-05T01:13:35.886Z,429.00
2024-01-05T01:14:35.917Z,430.00
2024-01-05T01:15:36.046Z,432.00
2024-01-05T01:16:35.966Z,432.00
2024-01-05T01:17:36.034Z,432.00
2024-01-05T01:18:36.058Z,434.00
2024-01-05T01:19:36.064Z,435.00
2024-01-05T01:20:36.010Z,436.00
2024-01-05T01:21:36.055Z,434.00
2024-01-05T01:22:36.023Z,433.00
2024-01-05T01:23:36.075Z,432.00
2024-01-05T01:24:36.129Z,434.00
2024-01-05T01:25:36.128Z,433.00
2024-01-05T01:26:36.181Z,430.00
2024-01-05T01:27:36.236Z,431.00
2024-01-05T01:28:36.190Z,431.00
2024-01-05T01:29:36.201Z,431.00
2024-01-05T01:30:36.327Z,431.00
2024-01-05T01:31:36.381Z,431.00
2024-01-05T01:32:36.328Z,431.00
2024-01-05T01:33:36.402Z,428.00
2024-01-05T01:34:36.374Z,430.00
2024-01-05T01:35:36.352Z,430.00
2024-01-05T01:36:36.413Z,431.00
2024-01-05T01:37:36.397Z,431.00
2024-01-05T01:38:36.447Z,430.00
2024-01-05T01:39:36.483Z,432.00
2024-01-05T01:40:36.442Z,434.00
2024-01-05T01:41:36.513Z,433.00
2024-01-05T01:42:36.703Z,434.00
2024-01-05T01:43:36.646Z,434.00
2024-01-05T01:44:36.676Z,434.00
2024-01-05T01:45:36.742Z,433.00
2024-01-05T01:46:36.787Z,430.00
2024-01-05T01:47:36.801Z,430.00
2024-01-05T01:48:36.962Z,428.00
2024-01-05T01:49:36.920Z,426.00
2024-01-05T01:50:36.820Z,427.00
2024-01-05T01:51:37.059Z,427.00
2024-01-05T01:52:36.932Z,431.00
2024-01-05T01:53:37.038Z,431.00
2024-01-05T01:54:37.252Z,431.00
2024-01-05T01:55:37.073Z,431.00
2024-01-05T01:56:37.060Z,432.00
2024-01-05T01:57:37.098Z,430.00
2024-01-05T01:58:37.122Z,427.00
2024-01-05T01:59:37.114Z,425.00
2024-01-05T02:00:37.321Z,426.00
2024-01-05T02:01:37.223Z,427.00
2024-01-05T02:02:37.207Z,429.00
2024-01-05T02:03:37.287Z,431.00
2024-01-05T02:04:37.262Z,432.00
2024-01-05T02:05:37.282Z,433.00
2024-01-05T02:06:37.272Z,433.00
2024-01-05T02:07:37.277Z,434.00
2024-01-05T02:08:37.284Z,433.00
2024-01-05T02:09:37.388Z,435.00
2024-01-05T02:10:37.354Z,435.00
2024-01-05T02:11:37.405Z,432.00
2024-01-05T02:12:37.531Z,432.00
2024-01-05T02:13:37.403Z,432.00
2024-01-05T02:14:37.433Z,434.00
2024-01-05T02:15:37.507Z,434.00
2024-01-05T02:16:37.510Z,433.00
2024-01-05T02:17:37.613Z,433.00
2024-01-05T02:18:37.568Z,431.00
2024-01-05T02:19:37.673Z,431.00
2024-01-05T02:20:37.579Z,432.00
2024-01-05T02:21:37.654Z,432.00
2024-01-05T02:22:37.653Z,433.00
2024-01-05T02:23:37.705Z,433.00
2024-01-05T02:24:37.716Z,433.00
2024-01-05T02:25:37.641Z,431.00
2024-01-05T02:26:37.736Z,430.00
2024-01-05T02:27:37.980Z,432.00
2024-01-05T02:28:37.739Z,430.00
2024-01-05T02:29:37.784Z,429.00
2024-01-05T02:30:38.009Z,429.00
2024-01-05T02:31:37.862Z,428.00
2024-01-05T02:32:37.931Z,429.00
2024-01-05T02:33:38.007Z,429.00
2024-01-05T02:34:37.919Z,429.00
2024-01-05T02:35:37.902Z,428.00
2024-01-05T02:36:38.015Z,429.00
2024-01-05T02:37:37.977Z,429.00
2024-01-05T02:38:37.996Z,428.00
2024-01-05T02:39:38.205Z,427.00
2024-01-05T02:40:38.092Z,427.00
2024-01-05T02:41:38.101Z,428.00
2024-01-05T02:42:38.244Z,427.00
2024-01-05T02:43:38.126Z,425.00
2024-01-05T02:44:38.202Z,424.00
2024-01-05T02:45:38.261Z,422.00
2024-01-05T02:46:38.219Z,421.00
2024-01-05T02:47:38.232Z,422.00
2024-01-05T02:48:38.436Z,422.00
2024-01-05T02:49:38.401Z,422.00
2024-01-05T02:50:38.324Z,424.00
2024-01-05T02:51:38.484Z,423.00
2024-01-05T02:52:38.389Z,422.00
2024-01-05T02:53:38.409Z,422.00
2024-01-05T02:54:38.488Z,424.00
2024-01-05T02:55:38.492Z,424.00
2024-01-05T02:56:38.494Z,425.00
2024-01-05T02:57:38.520Z,427.00
2024-01-05T02:58:38.605Z,428.00
2024-01-05T02:59:38.596Z,427.00
2024-01-05T03:00:38.847Z,425.00
2024-01-05T03:01:38.691Z,425.00
2024-01-05T03:02:38.757Z,425.00
2024-01-05T03:03:38.834Z,423.00
2024-01-05T03:04:38.805Z,424.00
2024-01-05T03:05:38.923Z,426.00
2024-01-05T03:06:38.906Z,426.00
2024-01-05T03:07:38.965Z,426.00
2024-01-05T03:08:39.081Z,425.00
2024-01-05T03:09:39.119Z,425.00
2024-01-05T03:10:39.125Z,426.00
2024-01-05T03:11:39.194Z,429.00
2024-01-05T03:12:39.298Z,427.00
2024-01-05T03:13:39.232Z,425.00
2024-01-05T03:14:39.302Z,426.00
2024-01-05T03:15:39.329Z,427.00
2024-01-05T03:16:39.387Z,426.00
2024-01-05T03:17:39.402Z,427.00
2024-01-05T03:18:39.532Z,429.00
2024-01-05T03:19:39.557Z,428.00
2024-01-05T03:20:39.568Z,426.00
2024-01-05T03:21:39.665Z,425.00
2024-01-05T03:22:39.637Z,427.00
2024-01-05T03:23:39.713Z,424.00
2024-01-05T03:24:39.744Z,425.00
2024-01-05T03:25:39.824Z,426.00
2024-01-05T03:26:40.024Z,425.00
2024-01-05T03:27:39.877Z,424.00
2024-01-05T03:28:39.847Z,423.00
2024-01-05T03:29:39.874Z,426.00
2024-01-05T03:30:39.968Z,425.00
2024-01-05T03:31:39.975Z,425.00
2024-01-05T03:32:40.077Z,426.00
2024-01-05T03:33:40.192Z,429.00
2024-01-05T03:34:40.326Z,428.00
2024-01-05T03:35:40.081Z,426.00
2024-01-05T03:36:40.236Z,424.00
2024-01-05T03:37:40.196Z,423.00
2024-01-05T03:38:40.267Z,423.00
2024-01-05T03:39:40.343Z,423.00
2024-01-05T03:40:40.366Z,422.00
2024-01-05T03:41:40.432Z,422.00
2024-01-05T03:42:40.500Z,422.00
2024-01-05T03:43:40.488Z,424.00
2024-01-05T03:44:40.538Z,425.00
2024-01-05T03:45:40.646Z,423.00
2024-01-05T03:46:41.004Z,424.00
2024-01-05T03:47:40.709Z,423.00
2024-01-05T03:48:40.930Z,424.00
2024-01-05T03:49:40.958Z,421.00
2024-01-05T03:50:40.725Z,418.00
2024-01-05T03:51:40.809Z,416.00
2024-01-05T03:52:40.852Z,417.00
2024-01-05T03:53:40.897Z,417.00
2024-01-05T03:54:41.012Z,419.00
2024-01-05T03:55:41.036Z,421.00
2024-01-05T03:56:41.250Z,420.00
2024-01-05T03:57:41.199Z,419.00
2024-01-05T03:58:41.248Z,419.00
2024-01-05T03:59:41.219Z,419.00
2024-01-05T04:00:41.394Z,416.00
2024-01-05T04:01:41.392Z,415.00
2024-01-05T04:02:41.376Z,415.00
2024-01-05T04:03:41.449Z,414.00
2024-01-05T04:04:41.568Z,413.00
2024-01-05T04:05:41.544Z,416.00
2024-01-05T04:06:42.157Z,415.00
2024-01-05T04:07:41.640Z,416.00
2024-01-05T04:08:41.569Z,419.00
2024-01-05T04:09:41.618Z,420.00
2024-01-05T04:10:41.651Z,420.00
2024-01-05T04:11:41.714Z,422.00
2024-01-05T04:12:41.762Z,421.00
2024-01-05T04:13:41.765Z,417.00
2024-01-05T04:14:41.825Z,417.00
2024-01-05T04:15:41.879Z,418.00
2024-01-05T04:16:42.255Z,420.00
2024-01-05T04:17:41.975Z,421.00
2024-01-05T04:18:42.061Z,419.00
2024-01-05T04:19:42.005Z,421.00
2024-01-05T04:20:42.053Z,421.00
2024-01-05T04:21:42.035Z,421.00
2024-01-05T04:22:42.071Z,421.00
2024-01-05T04:23:42.156Z,420.00
2024-01-05T04:24:42.366Z,420.00
2024-01-05T04:25:42.195Z,419.00
2024-01-05T04:26:49.452Z,436.00
2024-01-05T04:27:49.440Z,433.00
2024-01-05T04:28:49.458Z,431.00
2024-01-05T04:29:49.383Z,428.00
2024-01-05T04:30:49.494Z,426.00
2024-01-05T04:31:57.002Z,432.00
2024-01-05T04:32:57.114Z,427.00
2024-01-05T04:33:57.241Z,426.00
2024-01-05T04:34:57.175Z,421.00
2024-01-05T04:35:57.193Z,417.00
2024-01-05T04:36:57.227Z,416.00
2024-01-05T04:37:57.311Z,417.00
2024-01-05T04:38:57.337Z,417.00
2024-01-05T04:39:57.356Z,420.00
2024-01-05T04:40:57.419Z,422.00
2024-01-05T04:41:57.483Z,420.00
2024-01-05T04:42:57.562Z,420.00
2024-01-05T04:43:57.611Z,419.00
2024-01-05T04:44:57.658Z,417.00
2024-01-05T04:45:57.652Z,416.00
2024-01-05T04:46:57.667Z,418.00
2024-01-05T04:47:57.805Z,418.00
2024-01-05T04:48:57.841Z,418.00
2024-01-05T04:49:57.880Z,419.00
2024-01-05T04:50:57.805Z,421.00
2024-01-05T04:51:57.846Z,421.00
2024-01-05T04:52:57.853Z,421.00
2024-01-05T04:53:57.934Z,420.00
2024-01-05T04:54:57.918Z,420.00
2024-01-05T04:55:57.984Z,420.00
2024-01-05T04:56:58.030Z,422.00
2024-01-05T04:57:58.046Z,423.00
2024-01-05T04:58:58.091Z,424.00
2024-01-05T04:59:58.113Z,421.00
2024-01-05T05:00:58.171Z,422.00
2024-01-05T05:01:58.169Z,422.00
2024-01-05T05:02:58.280Z,424.00
2024-01-05T05:03:58.284Z,422.00
2024-01-05T05:04:58.345Z,425.00
2024-01-05T05:05:58.354Z,425.00
2024-01-05T05:06:58.350Z,425.00
2024-01-05T05:07:58.425Z,429.00
2024-01-05T05:08:58.520Z,429.00
2024-01-05T05:09:58.485Z,430.00
2024-01-05T05:10:58.509Z,432.00
2024-01-05T05:11:58.634Z,436.00
2024-01-05T05:12:58.670Z,440.00
2024-01-05T05:13:58.651Z,442.00
2024-01-05T05:14:58.745Z,446.00
2024-01-05T05:15:58.794Z,447.00
2024-01-05T05:16:58.819Z,449.00
2024-01-05T05:17:59.075Z,451.00
2024-01-05T05:18:58.991Z,450.00
2024-01-05T05:19:59.017Z,452.00
2024-01-05T05:20:59.236Z,452.00
2024-01-05T05:21:59.133Z,454.00
2024-01-05T05:22:59.184Z,455.00
2024-01-05T05:23:59.284Z,456.00
2024-01-05T05:24:59.257Z,454.00
2024-01-05T05:25:59.279Z,454.00
2024-01-05T05:26:59.456Z,455.00
2024-01-05T05:27:59.480Z,457.00
2024-01-05T05:28:59.474Z,459.00
2024-01-05T05:29:59.541Z,462.00
2024-01-05T05:30:59.726Z,462.00
2024-01-05T05:31:59.645Z,464.00
2024-01-05T05:32:59.868Z,466.00
2024-01-05T05:33:59.895Z,466.00
2024-01-05T05:34:59.825Z,466.00
2024-01-05T05:35:59.890Z,467.00
2024-01-05T05:36:59.957Z,466.00
2024-01-05T05:38:00.008Z,465.00
2024-01-05T05:39:00.028Z,464.00
2024-01-05T05:40:00.063Z,465.00
2024-01-05T05:41:00.107Z,467.00
2024-01-05T05:42:00.236Z,463.00
2024-01-05T05:43:00.216Z,460.00
2024-01-05T05:44:00.237Z,460.00
2024-01-05T05:45:00.421Z,459.00
2024-01-05T05:46:00.320Z,460.00
2024-01-05T05:47:00.346Z,460.00
2024-01-05T05:48:00.495Z,464.00
2024-01-05T05:49:00.625Z,466.00
2024-01-05T05:50:00.453Z,466.00
2024-01-05T05:51:00.538Z,466.00
2024-01-05T05:52:00.566Z,467.00
2024-01-05T05:53:00.610Z,467.00
2024-01-05T05:54:01.409Z,466.00
2024-01-05T05:55:00.691Z,464.00
2024-01-05T05:56:00.745Z,462.00
2024-01-05T05:57:00.908Z,462.00
2024-01-05T05:58:03.057Z,460.00
2024-01-05T05:59:00.814Z,462.00
2024-01-05T06:00:00.965Z,464.00
2024-01-05T06:01:00.991Z,465.00
2024-01-05T06:02:00.842Z,467.00
2024-01-05T06:03:00.828Z,465.00
2024-01-05T06:04:00.952Z,466.00
2024-01-05T06:05:00.789Z,465.00
2024-01-05T06:06:00.912Z,466.00
2024-01-05T06:07:00.919Z,466.00
2024-01-05T06:08:00.807Z,466.00
2024-01-05T06:09:00.906Z,467.00
2024-01-05T06:10:00.826Z,467.00
2024-01-05T06:11:00.918Z,468.00
2024-01-05T06:12:00.821Z,466.00
2024-01-05T06:13:00.801Z,465.00
2024-01-05T06:14:00.809Z,463.00
2024-01-05T06:15:01.008Z,463.00
2024-01-05T06:16:00.826Z,464.00
2024-01-05T06:17:00.848Z,465.00
2024-01-05T06:18:00.978Z,468.00
2024-01-05T06:19:00.899Z,468.00
2024-01-05T06:20:00.858Z,468.00
2024-01-05T06:21:00.880Z,470.00
2024-01-05T06:22:00.821Z,470.00
2024-01-05T06:23:00.833Z,470.00
2024-01-05T06:24:00.879Z,469.00
2024-01-05T06:25:00.872Z,469.00
2024-01-05T06:26:00.836Z,468.00
2024-01-05T06:27:00.858Z,467.00
2024-01-05T06:28:00.867Z,466.00
2024-01-05T06:29:00.831Z,468.00
2024-01-05T06:30:00.984Z,468.00
2024-01-05T06:31:00.961Z,466.00
2024-01-05T06:32:01.445Z,466.00
2024-01-05T06:33:00.955Z,464.00
2024-01-05T06:34:03.233Z,465.00
2024-01-05T06:35:00.860Z,467.00
2024-01-05T06:36:00.882Z,469.00
2024-01-05T06:37:00.867Z,469.00
2024-01-05T06:38:00.857Z,469.00
2024-01-05T06:39:00.909Z,468.00
2024-01-05T06:40:00.874Z,468.00
2024-01-05T06:41:00.893Z,468.00
2024-01-05T06:42:00.853Z,468.00
2024-01-05T06:43:00.826Z,465.00
2024-01-05T06:44:00.855Z,465.00
2024-01-05T06:45:00.916Z,467.00
2024-01-05T06:46:00.828Z,468.00
2024-01-05T06:47:00.856Z,468.00
2024-01-05T06:48:01.215Z,467.00
2024-01-05T06:49:00.954Z,465.00
2024-01-05T06:50:01.087Z,466.00
2024-01-05T06:51:00.993Z,466.00
2024-01-05T06:52:00.882Z,467.00
2024-01-05T06:53:00.862Z,469.00
2024-01-05T06:54:00.920Z,470.00
2024-01-05T06:55:00.927Z,471.00
2024-01-05T06:56:00.829Z,471.00
2024-01-05T06:57:00.839Z,471.00
2024-01-05T06:58:00.830Z,470.00
2024-01-05T06:59:00.847Z,468.00
2024-01-05T07:00:01.005Z,469.00
2024-01-05T07:01:00.886Z,469.00
2024-01-05T07:02:00.837Z,471.00
2024-01-05T07:03:00.944Z,472.00
2024-01-05T07:04:00.987Z,473.00
2024-01-05T07:05:00.926Z,471.00
2024-01-05T07:06:00.921Z,470.00
2024-01-05T07:07:00.866Z,470.00
2024-01-05T07:08:00.878Z,470.00
2024-01-05T07:09:00.909Z,472.00
2024-01-05T07:10:00.876Z,471.00
2024-01-05T07:11:00.889Z,470.00
2024-01-05T07:12:00.976Z,471.00
2024-01-05T07:13:00.898Z,470.00
2024-01-05T07:14:00.903Z,470.00
2024-01-05T07:15:00.940Z,467.00
2024-01-05T07:16:00.861Z,465.00
2024-01-05T07:17:00.867Z,462.00
2024-01-05T07:18:00.970Z,462.00
2024-01-05T07:19:01.019Z,463.00
2024-01-05T07:20:00.850Z,461.00
2024-01-05T07:21:00.934Z,462.00
2024-01-05T07:22:00.901Z,463.00
2024-01-05T07:23:00.911Z,464.00
2024-01-05T07:24:00.965Z,465.00
2024-01-05T07:25:00.912Z,467.00
2024-01-05T07:26:00.933Z,467.00
2024-01-05T07:27:01.030Z,467.00
2024-01-05T07:28:01.052Z,466.00
2024-01-05T07:29:01.118Z,465.00
2024-01-05T07:30:01.188Z,464.00
2024-01-05T07:31:01.436Z,466.00
2024-01-05T07:32:01.435Z,466.00
2024-01-05T07:33:01.450Z,465.00
2024-01-05T07:34:01.507Z,463.00
2024-01-05T07:35:01.464Z,464.00
2024-01-05T07:36:01.548Z,462.00
2024-01-05T07:37:01.562Z,461.00
2024-01-05T07:38:01.625Z,460.00
2024-01-05T07:39:01.656Z,459.00
2024-01-05T07:40:01.693Z,458.00
2024-01-05T07:41:01.740Z,456.00
2024-01-05T07:42:01.901Z,454.00
2024-01-05T07:43:01.879Z,454.00
2024-01-05T07:44:01.851Z,456.00
2024-01-05T07:45:01.976Z,458.00
2024-01-05T07:46:01.943Z,461.00
2024-01-05T07:47:01.988Z,462.00
2024-01-05T07:48:02.232Z,462.00
2024-01-05T07:49:02.258Z,462.00
2024-01-05T07:50:02.186Z,459.00
2024-01-05T07:51:02.305Z,461.00
2024-01-05T07:52:02.369Z,459.00
2024-01-05T07:53:02.404Z,458.00
2024-01-05T07:54:02.483Z,456.00
2024-01-05T07:55:02.506Z,456.00
2024-01-05T07:56:02.531Z,455.00
2024-01-05T07:57:02.629Z,453.00
2024-01-05T07:58:02.680Z,451.00
2024-01-05T07:59:02.738Z,453.00
2024-01-05T08:00:02.943Z,455.00
2024-01-05T08:01:02.978Z,457.00
2024-01-05T08:02:02.973Z,456.00
2024-01-05T08:03:03.112Z,455.00
2024-01-05T08:04:03.246Z,456.00
2024-01-05T08:05:03.121Z,457.00
2024-01-05T08:06:03.291Z,458.00
2024-01-05T08:07:03.379Z,455.00
2024-01-05T08:08:03.350Z,454.00
2024-01-05T08:09:03.482Z,455.00
2024-01-05T08:10:03.489Z,458.00
2024-01-05T08:11:03.554Z,462.00
2024-01-05T08:12:03.610Z,462.00
2024-01-05T08:13:03.688Z,464.00
2024-01-05T08:14:03.900Z,463.00
2024-01-05T08:15:03.917Z,461.00
2024-01-05T08:16:03.890Z,461.00
2024-01-05T08:17:03.899Z,460.00
2024-01-05T08:18:04.180Z,458.00
2024-01-05T08:19:04.059Z,457.00
2024-01-05T08:20:04.056Z,457.00
2024-01-05T08:21:04.019Z,455.00
2024-01-05T08:22:04.161Z,457.00
2024-01-05T08:23:04.091Z,456.00
2024-01-05T08:24:04.173Z,459.00
2024-01-05T08:25:04.193Z,460.00
2024-01-05T08:26:04.286Z,459.00
2024-01-05T08:27:04.319Z,460.00
2024-01-05T08:28:04.370Z,456.00
2024-01-05T08:29:04.444Z,456.00
2024-01-05T08:30:04.573Z,454.00
2024-01-05T08:31:04.621Z,453.00
2024-01-05T08:32:04.962Z,454.00
2024-01-05T08:33:04.776Z,456.00
2024-01-05T08:34:04.736Z,455.00
2024-01-05T08:35:04.680Z,455.00
2024-01-05T08:36:04.795Z,455.00
2024-01-05T08:37:04.887Z,457.00
2024-01-05T08:38:04.856Z,456.00
2024-01-05T08:39:04.941Z,457.00
2024-01-05T08:40:04.977Z,458.00
2024-01-05T08:41:04.963Z,458.00
2024-01-05T08:42:05.056Z,458.00
2024-01-05T08:43:05.095Z,460.00
2024-01-05T08:44:05.120Z,458.00
2024-01-05T08:45:05.274Z,457.00
2024-01-05T08:46:05.224Z,455.00
2024-01-05T08:47:05.264Z,456.00
2024-01-05T08:48:05.428Z,455.00
2024-01-05T08:49:05.402Z,454.00
2024-01-05T08:50:05.358Z,455.00
2024-01-05T08:51:05.444Z,457.00
2024-01-05T08:52:05.401Z,457.00
2024-01-05T08:53:05.454Z,455.00
2024-01-05T08:54:05.557Z,458.00
2024-01-05T08:55:05.531Z,457.00
2024-01-05T08:56:05.596Z,455.00
2024-01-05T08:57:05.626Z,455.00
2024-01-05T08:58:05.663Z,452.00
2024-01-05T08:59:05.626Z,453.00
2024-01-05T09:00:05.690Z,453.00
2024-01-05T09:01:05.772Z,456.00
2024-01-05T09:02:05.751Z,455.00
2024-01-05T09:03:06.530Z,452.00
2024-01-05T09:04:05.777Z,453.00
2024-01-05T09:05:05.831Z,451.00
2024-01-05T09:06:05.869Z,452.00
2024-01-05T09:07:05.823Z,453.00
2024-01-05T09:08:05.874Z,453.00
2024-01-05T09:09:05.949Z,455.00
2024-01-05T09:10:05.888Z,455.00
2024-01-05T09:11:05.981Z,457.00
2024-01-05T09:12:05.974Z,457.00
2024-01-05T09:13:05.980Z,455.00
2024-01-05T09:14:06.030Z,453.00
2024-01-05T09:15:06.151Z,451.00
2024-01-05T09:16:06.053Z,451.00
2024-01-05T09:17:06.095Z,450.00
2024-01-05T09:18:06.296Z,450.00
2024-01-05T09:19:06.328Z,448.00
2024-01-05T09:20:06.309Z,448.00
2024-01-05T09:21:06.297Z,449.00
2024-01-05T09:22:06.274Z,449.00
2024-01-05T09:23:06.344Z,451.00
2024-01-05T09:24:06.421Z,451.00
2024-01-05T09:25:06.410Z,451.00
2024-01-05T09:26:06.417Z,450.00
2024-01-05T09:27:06.462Z,449.00
2024-01-05T09:28:06.477Z,446.00
2024-01-05T09:29:06.471Z,445.00
2024-01-05T09:30:06.645Z,446.00
2024-01-05T09:31:07.106Z,449.00
2024-01-05T09:32:06.561Z,450.00
2024-01-05T09:33:06.651Z,450.00
2024-01-05T09:34:06.689Z,448.00
2024-01-05T09:35:06.620Z,449.00
2024-01-05T09:36:06.702Z,446.00
2024-01-05T09:37:06.691Z,448.00
2024-01-05T09:38:06.650Z,449.00
2024-01-05T09:39:06.806Z,448.00
2024-01-05T09:40:06.797Z,449.00
2024-01-05T09:41:06.744Z,451.00
2024-01-05T09:42:06.975Z,451.00
2024-01-05T09:43:06.824Z,451.00
2024-01-05T09:44:06.851Z,449.00
2024-01-05T09:45:06.877Z,449.00
2024-01-05T09:46:06.909Z,451.00
2024-01-05T09:47:07.001Z,450.00
2024-01-05T09:48:07.138Z,448.00
2024-01-05T09:49:07.088Z,448.00
2024-01-05T09:50:07.171Z,448.00
2024-01-05T09:51:07.076Z,445.00
2024-01-05T09:52:07.044Z,444.00
2024-01-05T09:53:07.039Z,444.00
2024-01-05T09:54:07.086Z,444.00
2024-01-05T09:55:07.109Z,443.00
2024-01-05T09:56:07.275Z,444.00
2024-01-05T09:57:07.156Z,444.00
2024-01-05T09:58:07.144Z,442.00
2024-01-05T09:59:07.198Z,442.00
2024-01-05T10:00:07.236Z,444.00
2024-01-05T10:01:07.346Z,444.00
2024-01-05T10:02:07.267Z,443.00
2024-01-05T10:03:07.272Z,443.00
2024-01-05T10:04:07.418Z,442.00
2024-01-05T10:05:07.384Z,442.00
2024-01-05T10:06:07.493Z,441.00
2024-01-05T10:07:07.469Z,441.00
2024-01-05T10:08:07.454Z,439.00
2024-01-05T10:09:07.591Z,440.00
2024-01-05T10:10:07.557Z,439.00
2024-01-05T10:11:07.533Z,440.00
2024-01-05T10:12:07.586Z,439.00
2024-01-05T10:13:07.598Z,440.00
2024-01-05T10:14:08.182Z,442.00
2024-01-05T10:15:07.917Z,443.00
2024-01-05T10:16:07.617Z,440.00
2024-01-05T10:17:08.494Z,441.00
2024-01-05T10:18:07.697Z,438.00
2024-01-05T10:19:07.785Z,439.00
2024-01-05T10:20:07.681Z,440.00
2024-01-05T10:21:07.742Z,441.00
2024-01-05T10:22:07.724Z,440.00
2024-01-05T10:23:07.735Z,440.00
2024-01-05T10:24:07.768Z,441.00
2024-01-05T10:25:07.744Z,441.00
2024-01-05T10:26:07.747Z,440.00
2024-01-05T10:27:07.837Z,437.00
2024-01-05T10:28:07.765Z,436.00
2024-01-05T10:29:07.759Z,433.00
2024-01-05T10:30:07.827Z,432.00
2024-01-05T10:31:07.872Z,435.00
2024-01-05T10:32:07.826Z,438.00
2024-01-05T10:33:08.126Z,440.00
2024-01-05T10:34:07.837Z,441.00
2024-01-05T10:35:07.847Z,441.00
2024-01-05T10:36:08.046Z,440.00
2024-01-05T10:37:07.811Z,442.00
2024-01-05T10:38:07.817Z,441.00
2024-01-05T10:39:07.896Z,441.00
2024-01-05T10:40:07.878Z,441.00
2024-01-05T10:41:07.844Z,442.00
2024-01-05T10:42:07.922Z,443.00
2024-01-05T10:43:07.904Z,444.00
2024-01-05T10:44:07.872Z,444.00
2024-01-05T10:45:07.882Z,441.00
2024-01-05T10:46:07.871Z,440.00
2024-01-05T10:47:07.886Z,439.00
2024-01-05T10:48:08.002Z,438.00
2024-01-05T10:49:08.131Z,437.00
2024-01-05T10:50:08.037Z,435.00
2024-01-05T10:51:07.997Z,437.00
2024-01-05T10:52:07.931Z,437.00
2024-01-05T10:53:07.924Z,439.00
2024-01-05T10:54:08.000Z,441.00
2024-01-05T10:55:07.933Z,441.00
2024-01-05T10:56:07.894Z,439.00
2024-01-05T10:57:07.974Z,438.00
2024-01-05T10:58:08.043Z,440.00
2024-01-05T10:59:07.907Z,443.00
2024-01-05T11:00:07.974Z,444.00
2024-01-05T11:01:08.010Z,444.00
2024-01-05T11:02:07.935Z,444.00
2024-01-05T11:03:08.044Z,444.00
2024-01-05T11:04:07.966Z,441.00
2024-01-05T11:05:08.028Z,443.00
2024-01-05T11:06:08.041Z,440.00
2024-01-05T11:07:08.088Z,439.00
2024-01-05T11:08:07.956Z,437.00
2024-01-05T11:09:08.015Z,439.00
2024-01-05T11:10:08.044Z,439.00
2024-01-05T11:11:08.065Z,438.00
2024-01-05T11:12:08.118Z,440.00
2024-01-05T11:13:08.008Z,441.00
2024-01-05T11:14:08.193Z,442.00
2024-01-05T11:15:08.021Z,442.00
2024-01-05T11:16:08.010Z,443.00
2024-01-05T11:17:07.991Z,439.00
2024-01-05T11:18:08.061Z,437.00
2024-01-05T11:19:08.151Z,436.00
2024-01-05T11:20:08.100Z,434.00
2024-01-05T11:21:08.182Z,437.00
2024-01-05T11:22:08.122Z,439.00
2024-01-05T11:23:08.139Z,438.00
2024-01-05T11:24:08.180Z,440.00
2024-01-05T11:25:08.172Z,440.00
2024-01-05T11:26:08.250Z,440.00
2024-01-05T11:27:08.213Z,440.00
2024-01-05T11:28:08.220Z,439.00
2024-01-05T11:29:08.240Z,439.00
2024-01-05T11:30:08.338Z,440.00
2024-01-05T11:31:08.382Z,439.00
2024-01-05T11:32:08.327Z,440.00
2024-01-05T11:33:08.496Z,440.00
2024-01-05T11:34:08.469Z,438.00
2024-01-05T11:35:08.432Z,437.00
2024-01-05T11:36:08.435Z,436.00
2024-01-05T11:37:08.432Z,437.00
2024-01-05T11:38:08.391Z,437.00
2024-01-05T11:39:08.454Z,438.00
2024-01-05T11:40:08.522Z,439.00
2024-01-05T11:41:08.504Z,439.00
2024-01-05T11:42:08.552Z,439.00
2024-01-05T11:43:08.534Z,439.00
2024-01-05T11:44:08.515Z,439.00
2024-01-05T11:45:08.758Z,438.00
2024-01-05T11:46:08.756Z,435.00
2024-01-05T11:47:08.651Z,435.00
2024-01-05T11:48:08.881Z,432.00
2024-01-05T11:49:08.875Z,430.00
2024-01-05T11:50:08.711Z,430.00
2024-01-05T11:51:08.863Z,431.00
2024-01-05T11:52:08.739Z,430.00
2024-01-05T11:53:08.757Z,430.00
2024-01-05T11:54:08.784Z,430.00
2024-01-05T11:55:08.771Z,433.00
2024-01-05T11:56:08.854Z,433.00
2024-01-05T11:57:08.865Z,436.00
2024-01-05T11:58:08.880Z,437.00
2024-01-05T11:59:08.939Z,438.00
2024-01-05T12:00:09.031Z,439.00
2024-01-05T12:01:09.177Z,441.00
2024-01-05T12:02:09.120Z,438.00
2024-01-05T12:03:09.427Z,436.00
2024-01-05T12:04:09.390Z,432.00
2024-01-05T12:05:09.374Z,431.00
2024-01-05T12:06:09.532Z,431.00
2024-01-05T12:07:09.432Z,431.00
2024-01-05T12:08:09.477Z,430.00
2024-01-05T12:09:09.509Z,429.00
2024-01-05T12:10:09.473Z,429.00
2024-01-05T12:11:09.677Z,430.00
2024-01-05T12:12:09.626Z,431.00
2024-01-05T12:13:09.651Z,430.00
2024-01-05T12:14:09.700Z,430.00
2024-01-05T12:15:09.883Z,429.00
2024-01-05T12:16:10.708Z,430.00
2024-01-05T12:17:09.910Z,430.00
2024-01-05T12:18:19.330Z,429.00
2024-01-05T12:19:11.210Z,432.00
2024-01-05T12:20:10.089Z,434.00
2024-01-05T12:21:10.025Z,434.00
2024-01-05T12:22:09.973Z,436.00
2024-01-05T12:23:09.986Z,433.00
2024-01-05T12:24:10.047Z,434.00
2024-01-05T12:25:10.028Z,435.00
2024-01-05T12:26:10.159Z,435.00
2024-01-05T12:27:10.187Z,436.00
2024-01-05T12:28:10.204Z,438.00
2024-01-05T12:29:10.278Z,440.00